createdAt,value
2022-11-17T00:04:21.296Z,7.45
2022-11-17T00:14:37.692Z,8.82
2022-11-17T00:24:47.174Z,7.53
2022-11-17T00:34:56.418Z,6.95
2022-11-17T00:45:05.201Z,7.90
2022-11-17T00:55:13.202Z,7.72
2022-11-17T01:05:22.082Z,10.10
2022-11-17T01:16:43.093Z,5.72
2022-11-17T01:26:52.841Z,5.00
2022-11-17T01:37:16.750Z,5.25
2022-11-17T01:47:31.439Z,3.70
2022-11-17T01:57:45.927Z,3.10
2022-11-17T02:07:57.926Z,3.03
2022-11-17T02:18:06.472Z,2.58
2022-11-17T02:28:25.542Z,2.42
2022-11-17T02:38:42.627Z,2.70
2022-11-17T02:48:56.182Z,2.60
2022-11-17T02:59:07.395Z,2.60
2022-11-17T03:09:22.177Z,2.33
2022-11-17T03:19:38.428Z,2.35
2022-11-17T03:29:52.822Z,2.00
2022-11-17T03:40:05.057Z,2.10
2022-11-17T03:50:18.682Z,1.80
2022-11-17T04:00:26.266Z,1.67
2022-11-17T04:10:57.926Z,1.65
2022-11-17T04:21:05.267Z,1.65
2022-11-17T04:31:18.586Z,2.00
2022-11-17T04:41:44.430Z,1.98
2022-11-17T04:51:54.527Z,2.03
2022-11-17T05:02:05.844Z,1.80
2022-11-17T05:13:18.440Z,1.90
2022-11-17T05:24:04.053Z,1.83
2022-11-17T05:34:20.075Z,2.17
2022-11-17T05:44:32.216Z,2.42
2022-11-17T05:54:39.129Z,2.05
2022-11-17T06:04:47.951Z,2.10
2022-11-17T06:14:54.885Z,2.42
2022-11-17T06:25:05.071Z,1.95
2022-11-17T06:35:15.146Z,2.03
2022-11-17T06:45:23.943Z,2.15
2022-11-17T06:55:31.477Z,2.60
2022-11-17T07:05:41.112Z,2.63
2022-11-17T07:15:48.998Z,2.78
2022-11-17T07:25:58.508Z,2.20
2022-11-17T07:36:07.589Z,2.63
2022-11-17T07:46:17.998Z,3.13
2022-11-17T07:56:25.088Z,2.95
2022-11-17T08:06:33.672Z,2.88
2022-11-17T08:16:40.965Z,2.95
2022-11-17T08:26:49.739Z,2.60
2022-11-17T08:37:20.300Z,3.00
2022-11-17T08:47:55.636Z,3.30
2022-11-17T08:58:03.065Z,3.50
2022-11-17T09:08:55.892Z,4.03
2022-11-17T09:18:44.292Z,3.60
2022-11-17T09:29:14.885Z,3.55
2022-11-17T09:39:46.681Z,3.80
2022-11-17T09:50:01.700Z,3.30
2022-11-17T10:00:17.560Z,3.35
2022-11-17T10:10:37.435Z,3.60
2022-11-17T10:20:45.534Z,3.10
2022-11-17T10:31:22.615Z,2.97
2022-11-17T10:42:04.697Z,2.80
2022-11-17T10:52:27.356Z,2.47
2022-11-17T11:02:37.344Z,1.98
2022-11-17T11:13:20.653Z,2.17
2022-11-17T11:23:41.831Z,2.28
2022-11-17T11:45:48.934Z,1.98
2022-11-17T11:56:13.218Z,1.75
2022-11-17T12:06:43.701Z,1.88
2022-11-17T12:16:53.103Z,1.70
2022-11-17T12:28:18.008Z,1.67
2022-11-17T12:51:18.091Z,1.60
2022-11-17T13:01:37.215Z,1.50
2022-11-17T13:12:27.601Z,1.48
2022-11-17T13:22:44.609Z,1.45
2022-11-17T13:32:53.384Z,1.40
2022-11-17T13:43:02.706Z,1.30
2022-11-17T13:53:25.352Z,1.30
2022-11-17T14:03:39.469Z,1.38
2022-11-17T14:13:48.594Z,1.30
2022-11-17T14:24:37.874Z,1.30
2022-11-17T14:34:44.926Z,1.30
2022-11-17T14:45:08.313Z,1.42
2022-11-17T14:55:22.723Z,1.50
2022-11-17T15:16:38.205Z,1.50
2022-11-17T15:26:47.073Z,1.30
2022-11-17T15:37:00.442Z,1.48
2022-11-17T15:47:15.113Z,1.67
2022-11-17T15:57:22.555Z,1.77
2022-11-17T16:07:35.829Z,1.48
2022-11-17T16:17:43.104Z,1.73
2022-11-17T16:27:52.886Z,1.30
2022-11-17T16:38:59.744Z,1.65
2022-11-17T16:49:19.925Z,2.03
2022-11-17T17:00:05.417Z,2.20
2022-11-17T17:10:27.440Z,2.00
2022-11-17T17:21:15.176Z,2.15
2022-11-17T17:31:33.920Z,2.00
2022-11-17T17:42:23.087Z,2.00
2022-11-17T17:52:32.228Z,1.70
2022-11-17T18:02:39.403Z,1.90
2022-11-17T18:13:14.783Z,1.80
2022-11-17T18:23:44.314Z,1.85
2022-11-17T18:34:01.374Z,2.00
2022-11-17T18:44:15.364Z,1.50
2022-11-17T18:54:28.276Z,1.80
2022-11-17T19:04:49.504Z,1.52
2022-11-17T19:15:18.514Z,1.83
2022-11-17T19:25:39.903Z,1.65
2022-11-17T19:47:21.793Z,1.67
2022-11-17T19:58:08.618Z,1.67
2022-11-17T20:08:25.702Z,1.35
2022-11-17T20:18:46.652Z,1.67
2022-11-17T20:53:16.761Z,1.70
2022-11-17T21:04:32.416Z,1.63
2022-11-17T21:15:20.760Z,1.80
2022-11-17T21:36:45.223Z,2.20
2022-11-17T21:47:19.314Z,2.33
2022-11-17T21:57:29.592Z,2.00
2022-11-17T23:17:54.600Z,1.90
2022-11-17T23:28:02.511Z,1.90
2022-11-17T23:38:11.368Z,1.90
2022-11-17T23:48:18.384Z,1.70
2022-11-17T23:58:27.235Z,1.27
